Total volume
$12,593
$63,514 in 24h
Trades
705
Unique wallets
491
Liquidity
$0
Latest YES mid
46¢
Latest NO mid
54¢
End date
2026-05-06
First seen
2026-05-06
last 05-06 05:35
Cohort breakdown
who's buying — by wallet tier SMI: -3.4¢ (top1%: 2% YES on $5.1K vs crowd: 5% YES on $11.2K)
By volume tier
Tier Wallets YES buy NO buy Net bias
🐬 Dolphin 2 $59 $43 +$16
🐟 Fish 18 $50 $6.1K $6.0K
🦐 Shrimp 471 $475 $4.5K $4.1K
By P&L percentile
Tier Wallets YES buy NO buy Net bias
🎯 Top 1% 15 $91 $5.0K $5.0K
🏆 Top 5% 56 $73 $1.5K $1.5K
✅ Top 10% 50 $42 $439 $397
Median 92 $42 $247 $204
Below median 169 $86 $264 $178
⚠️ Bottom 10% 64 $124 $402 $278
🔻 Bottom 5% 37 $77 $1.2K $1.2K
💀 Bottom 1% 8 $49 $1.4K $1.4K
Wallet Side Net shares Cost basis Volume Trades Last activity
Exciting-Placement 0xb110…39f4 Down +3,343 $3,300 $3,300 11 05-06 05:34
Long-Term-Siege 0xc5d5…6caa Down +849 $839 $839 7 05-06 05:34
Stiff-Blackberry 0x10c9…e999 Down +496 $490 $490 6 05-06 05:34
Pricey-Maker 0x94f4…77a2 Down +487 $482 $482 8 05-06 05:34
Inexperienced-Abundance 0xe613…c5ec Down +402 $216 $216 2 05-06 05:30
Adored-Dory-Producer 0x04a1…3527 Down +385 $381 $381 6 05-06 05:34
Monthly-Lollipop 0xa823…6215 Down +330 $327 $327 5 05-06 05:34
Vicious-Crepe-Dolman 0x3693…3657 Down +316 $300 $300 1 05-06 05:34
Little-Fraction 0xcfb1…f694 Down +314 $207 $207 2 05-06 05:34
Tremendous-Sunlamp 0x95e2…7e07 Down +300 $289 $289 3 05-06 05:34
Great-Slump 0x4cd6…686f Down +300 $297 $297 1 05-06 05:34
Little-Fraction 0xcfb1…f694 Up +265 $35 $35 2 05-06 05:34
Noted-Dark 0x5ab4…2391 Up +250 $5 $5 1 05-06 05:34
Colorful-Typewriter 0x40a7…ae66 Up +225 $6 $6 2 05-06 05:34
Our-Crate 0x479e…8592 Up +220 $2 $2 2 05-06 05:34
Famous-Speedboat 0x6d9f…5568 Down +177 $175 $365 8 05-06 05:34
(anonymous) 0xdfc0…0cbc Up +167 $10 $10 1 05-06 05:34
Angry-Culvert 0xa867…f165 Down +140 $88 $88 14 05-06 05:34
Eager-Latitude 0x100b…3f1e Down +130 $129 $129 1 05-06 05:34
Dazzling-Blackbird 0x2c71…2ee6 Down +105 $100 $100 1 05-06 05:34
Imaginary-Tiger 0xb25e…39aa Down +104 $100 $100 1 05-06 05:34
Darling-Bagpipe 0xbb92…d291 Up +102 $2 $2 2 05-06 05:34
Rough-Emanate 0x6740…2812 Up +100 $1 $1 1 05-06 05:34
Flickering-Commuter 0x2334…9a9f Up +100 $12 $12 1 05-06 05:34
Beloved-Neighborhood 0x5af4…85e4 Up +100 $1 $1 1 05-06 05:34
Yearly-Skylight 0x31c0…20ad Down +100 $99 $99 1 05-06 05:34
Short-Gondola 0x4a59…ed2c Up +97 $49 $49 1 05-06 05:20
Sentimental-Differential 0x510a…d77f Down +96 $84 $84 4 05-06 05:34
Light-Dulcimer 0x93a4…af3e Up +94 $10 $10 2 05-06 05:34
Popular-Insurrection 0xeebd…ba30 Up +87 $26 $26 3 05-06 05:34
Upset-Sight 0xe022…6603 Down +80 $60 $60 4 05-06 05:34
Aromatic-Freedom 0xc547…7b30 Down +80 $46 $46 1 05-06 05:30
Wordy-Biosphere 0xa689…559b Down +80 $40 $40 1 05-06 05:30
Monstrous-Dew 0x5b63…11a4 Down +75 $72 $72 4 05-06 05:34
Lucky-Guitarist 0x27a2…4240 Down +71 $68 $68 1 05-06 05:34
Poor-Postfix 0x9cff…f59a Down +68 $67 $67 4 05-06 05:34
Neglected-Childbirth 0x8c33…412e Up +67 $35 $35 1 05-06 05:30
Deep-Observatory 0xc131…f5d5 Down +65 $64 $64 3 05-06 05:34
(anonymous) 0xe907…cff6 Up +64 $33 $33 3 05-06 05:30
Monstrous-Comportment 0x413b…43f4 Up +60 $3 $3 1 05-06 05:34
Gray-Water 0x6560…a3db Up +60 $2 $2 2 05-06 05:34
Popular-Insurrection 0xeebd…ba30 Down +60 $34 $34 3 05-06 05:34
Rash-Alternative 0xf353…6685 Down +60 $47 $47 3 05-06 05:34
Slight-Goodnight 0x6088…f361 Down +60 $47 $47 3 05-06 05:34
Hurtful-Infancy 0xb36b…0cb1 Down +54 $54 $54 6 05-06 05:34
Vengeful-Valuable 0x562a…2ad4 Down +54 $53 $53 3 05-06 05:34
Another-Phenotype 0x204b…94e2 Up +53 $4 $4 1 05-06 05:34
Selfish-Vicinity 0xebee…5ce5 Up +50 $1 $1 1 05-06 05:34
White-Cleaner 0xda2b…20cc Up +50 $3 $3 1 05-06 05:34
(anonymous) 0x7086…78a2 Up +50 $1 $1 1 05-06 05:34
Bare-Widow 0x1e12…8fe1 Up +50 $1 $1 1 05-06 05:34
Perfumed-Intellect 0xa71b…59b5 Up +50 $2 $2 1 05-06 05:34
Beloved-Buzz 0xc09d…aec8 Up +39 $20 $20 1 05-06 05:30
Rich-Dealer 0x0d6a…db89 Up +37 $18 $18 1 05-06 05:30
Rare-Urge 0x4dab…6d0e Up +36 $2 $2 1 05-06 05:34
Defenseless-Tomatillo 0xd2f2…00e8 Up +35 $2 $2 1 05-06 05:34
Shoddy-Cribbage 0x7251…1285 Up +31 $16 $16 1 05-06 05:29
Angry-Culvert 0xa867…f165 Up +30 $7 $7 3 05-06 05:34
Altruistic-Grief 0xa280…3343 Up +30 $7 $7 1 05-06 05:34
Nonstop-Folk 0x056d…127d Up +27 $3 $3 1 05-06 05:34